aviador You're here:

SARI Decoded Metar

IGUAZU FALLS in ARGENTINA
Report Time2017-09-26 00:00:00
UTC Time2017-09-26 00:07:34
Flight Rules vfr VFR
Wind090° at 03 kt
W.Decomp.*RWY 13: 2.7 kt HW 1.3 kt LCW
W.Rank090° ranks 7
Current wind is below 090° avg. (4.4)
Visibility9999 m
Phenomena:N/A
Clouds:N/A
Expected CloudBase > 1,600 ft AGL from Temp-Dew spread
CeilingNone
Temp22°C (ISA +9)
Dew Point18°C (78% RH)
QNH1017 hPa
Density Alt2,047 ft
Elevation886 ft
Report Wrong Elevation
Raw Report
METAR SARI 260000Z 09003KT CAVOK 22/18 Q1017=

Extra information for SARI:More info

Metar Taf Metar & Taf Last 4 Metars F.Rules Stats Wind Profile Meteogram Temp Stats Airport Information Weather charts Add Link Nearby VenuesMetar ALERT Operation Metar Decoded Social comments